Latest Weather Observations for Laverton

IDV60801

Issued at 4:32 pm EDT Friday 24 February 2017 (issued every 30 minutes, with the page automatically refreshed every 10 minutes)

About weather observations | Map of weather stations | Latest weather observations for VIC | Other Formats
Station Details ID: 087031 Name: LAVERTON RAAF Lat: -37.86 Lon: 144.76 Height: 20.1 m
Data from the previous 72 hours. | See also: Recent months at Laverton
Date/Time
EDT
Temp
°C
App
Temp
°C
Dew
Point
°C
Rel
Hum
%
Delta-T
°C
Wind Press
QNH
hPa
Press
MSL
hPa
Rain since
9am
mm
Dir  Spd
km/h
Gust
km/h
Spd
kts
Gust
kts
24/04:30pm 17.5 13.0 10.1 62 3.9 SSE 24 32 13 17 1024.9 1024.8 0.0
24/04:00pm 17.9 13.7 9.8 59 4.3 S 22 33 12 18 1024.9 1024.8 0.0
24/03:30pm 18.7 14.1 9.8 56 4.7 S 24 33 13 18 1025.0 1024.9 0.0
24/03:00pm 18.0 14.1 9.6 58 4.4 SSE 20 32 11 17 1025.2 1025.1 0.0
24/02:30pm 18.1 14.1 8.9 55 4.8 S 20 32 11 17 1025.4 1025.3 0.0
24/02:00pm 18.5 14.0 8.5 52 5.1 S 22 35 12 19 1025.4 1025.3 0.0
24/01:30pm 18.9 14.4 8.6 51 5.3 S 22 33 12 18 1025.4 1025.3 0.0
24/01:00pm 18.9 14.5 8.8 52 5.2 S 22 35 12 19 1025.4 1025.3 0.0
24/12:30pm 19.3 14.4 8.6 50 5.6 S 24 33 13 18 1025.4 1025.3 0.0
24/12:00pm 18.7 14.2 8.4 51 5.3 SSW 22 35 12 19 1025.4 1025.3 0.0
24/11:30am 18.3 13.4 8.6 53 5.0 SSW 24 35 13 19 1025.5 1025.4 0.0
24/11:00am 18.4 14.2 8.1 51 5.3 SSW 20 30 11 16 1025.3 1025.2 0.0
24/10:30am 17.8 13.3 8.4 54 4.8 SSW 22 32 12 17 1025.3 1025.2 0.0
24/10:00am 17.6 13.6 9.2 58 4.4 SW 20 28 11 15 1025.1 1025.0 0.0
24/09:30am 17.0 13.8 10.1 64 3.6 SW 17 26 9 14 1024.8 1024.7 0.0
24/09:00am 16.3 13.1 9.9 66 3.3 SW 17 26 9 14 1024.5 1024.4 0.0
24/08:30am 16.2 12.6 9.8 66 3.3 SW 19 30 10 16 1024.5 1024.4 0.0
24/08:00am 16.1 12.7 10.6 70 2.9 SW 19 26 10 14 1024.0 1023.9 0.0
24/07:30am 15.9 14.2 12.3 79 2.0 SW 13 17 7 9 1023.8 1023.7 0.0
24/07:00am 16.1 13.4 11.7 75 2.4 SSW 17 24 9 13 1023.4 1023.3 0.0
24/06:30am 15.9 13.4 12.3 79 2.0 SSW 17 24 9 13 1023.1 1023.0 0.0
24/06:00am 15.9 13.5 12.5 80 1.9 SSW 17 22 9 12 1022.9 1022.8 0.0
24/05:30am 15.6 14.0 12.9 84 1.5 SW 13 17 7 9 1022.6 1022.5 0.0
24/05:00am 15.7 13.4 13.0 84 1.5 SSW 17 24 9 13 1022.4 1022.3 0.0
24/04:57am 15.7 13.4 13.0 84 1.5 SSW 17 24 9 13 1022.4 1022.3 0.0
24/04:30am 15.7 13.5 13.4 86 1.3 SSW 17 24 9 13 1022.5 1022.4 0.0
24/04:22am 16.1 14.0 13.6 85 1.4 SSW 17 22 9 12 1022.4 1022.3 0.0
24/04:00am 16.0 14.7 13.7 86 1.3 S 13 17 7 9 1022.5 1022.4 0.0
24/03:30am 15.9 13.5 13.7 87 1.2 SSW 19 24 10 13 1022.7 1022.6 0.0
24/03:00am 16.4 14.3 13.7 84 1.5 SSW 17 24 9 13 1022.8 1022.7 0.0
24/02:30am 16.2 14.3 14.2 88 1.1 SSW 17 20 9 11 1022.8 1022.7 0.0
24/02:00am 16.0 15.1 14.9 93 0.6 S 13 20 7 11 1022.8 1022.7 0.0
24/01:30am 16.0 14.5 15.2 95 0.5 S 17 22 9 12 1023.1 1023.0 0.0
24/01:18am 16.2 14.6 15.1 93 0.6 SSW 17 24 9 13 1023.2 1023.1 0.0
24/01:00am 16.4 14.3 14.8 90 0.9 S 19 24 10 13 1023.2 1023.1 0.0
24/12:58am 16.5 14.5 14.9 90 0.9 S 19 26 10 14 1023.2 1023.1 0.0
24/12:30am 17.1 15.7 14.4 84 1.5 S 15 22 8 12 1023.0 1022.9 0.0
24/12:00am 17.2 15.4 14.5 84 1.5 S 17 24 9 13 1022.9 1022.8 0.0
 
Date/Time
EDT
Temp
°C
App
Temp
°C
Dew
Point
°C
Rel
Hum
%
Delta-T
°C
Wind Press
QNH
hPa
Press
MSL
hPa
Rain since
9am
mm
Dir  Spd
km/h
Gust
km/h
Spd
kts
Gust
kts
23/11:30pm 17.1 15.5 14.9 87 1.3 S 17 24 9 13 1022.8 1022.7 0.0
23/11:25pm 17.0 15.4 15.0 88 1.2 S 17 24 9 13 1022.9 1022.8 0.0
23/11:02pm 17.2 16.0 15.0 87 1.3 S 15 24 8 13 1022.9 1022.8 0.0
23/11:00pm 17.4 15.8 15.0 86 1.4 S 17 26 9 14 1022.9 1022.8 0.0
23/10:30pm 17.9 15.6 14.2 79 2.1 S 19 26 10 14 1022.6 1022.5 0.0
23/10:00pm 18.1 15.8 14.2 78 2.2 S 19 28 10 15 1022.6 1022.5 0.0
23/09:30pm 18.2 16.4 14.5 79 2.1 S 17 24 9 13 1022.3 1022.2 0.0
23/09:00pm 18.3 15.7 14.8 80 2.0 SSE 22 32 12 17 1021.7 1021.6 0.0
23/08:30pm 18.3 16.1 14.8 80 2.0 S 20 33 11 18 1021.1 1021.0 0.0
23/08:00pm 18.6 16.3 14.7 78 2.3 S 20 32 11 17 1020.4 1020.3 0.0
23/07:30pm 19.4 16.3 14.4 73 2.9 S 24 33 13 18 1019.9 1019.8 0.0
23/07:00pm 20.2 16.9 13.9 67 3.6 SSE 24 39 13 21 1019.6 1019.5 0.0
23/06:30pm 21.1 18.8 14.7 67 3.8 SSE 20 26 11 14 1019.2 1019.1 0.0
23/06:00pm 22.1 20.5 15.0 64 4.2 SE 17 24 9 13 1018.6 1018.5 0.0
23/05:30pm 22.2 19.8 14.3 61 4.6 SE 20 28 11 15 1018.3 1018.2 0.0
23/05:00pm 22.4 20.0 14.5 61 4.6 SE 20 32 11 17 1018.0 1017.9 0.0
23/04:30pm 23.5 20.1 13.7 54 5.7 SE 24 32 13 17 1017.8 1017.7 0.0
23/04:00pm 24.6 21.2 12.5 46 6.9 SSE 22 32 12 17 1017.7 1017.6 0.0
23/03:30pm 23.6 20.6 12.6 50 6.3 SSE 20 32 11 17 1017.7 1017.6 0.0
23/03:00pm 25.5 22.9 12.0 43 7.7 WSW 17 30 9 16 1017.8 1017.7 0.0
23/02:37pm 25.6 23.1 12.4 43 7.6 SW 17 44 9 24 1017.7 1017.6 0.0
23/02:30pm 24.9 23.0 11.8 44 7.5 WSW 13 24 7 13 1017.8 1017.7 0.0
23/02:00pm 24.3 21.1 11.9 45 7.0 WSW 20 32 11 17 1018.1 1018.0 0.0
23/01:30pm 23.6 21.0 12.0 48 6.6 SW 17 20 9 11 1018.2 1018.1 0.0
23/01:00pm 23.5 20.5 11.9 48 6.6 WSW 19 30 10 16 1018.2 1018.1 0.0
23/12:30pm 22.9 20.4 12.2 51 6.1 SW 17 28 9 15 1018.4 1018.3 0.0
23/12:00pm 22.4 19.2 11.8 51 5.9 WSW 20 30 11 16 1018.5 1018.4 0.0
23/11:30am 22.7 19.7 12.0 50 6.0 W 19 28 10 15 1018.3 1018.2 0.0
23/11:00am 21.6 18.1 12.2 55 5.3 WSW 22 33 12 18 1018.1 1018.0 0.0
23/10:30am 21.6 17.6 11.9 54 5.4 WSW 24 32 13 17 1017.9 1017.8 0.0
23/10:00am 20.7 16.7 11.9 57 4.9 W 24 35 13 19 1017.7 1017.6 0.0
23/09:30am 20.2 16.2 11.9 59 4.6 W 24 37 13 20 1017.4 1017.3 0.0
23/09:00am 19.6 15.6 11.9 61 4.3 SW 24 30 13 16 1017.2 1017.1 0.0
23/08:30am 18.8 16.2 11.9 64 3.8 WSW 17 24 9 13 1016.8 1016.7 0.0
23/08:00am 15.9 15.4 12.6 81 1.8 WNW 7 9 4 5 1016.3 1016.2 0.0
23/07:45am 14.8 13.8 12.3 85 1.4 WNW 9 13 5 7 1016.0 1015.9 0.0
23/07:30am 13.8 12.2 11.7 87 1.1 NW 11 13 6 7 1015.6 1015.5 0.0
23/07:09am 13.9 11.9 11.4 85 1.3 NW 13 13 7 7 1015.1 1015.0 0.0
23/07:00am 13.8 11.8 11.5 86 1.2 NW 13 15 7 8 1014.9 1014.8 0.0
23/06:30am 13.2 11.8 10.9 86 1.2 NW 9 11 5 6 1014.4 1014.3 0.0
23/06:00am 13.7 12.7 10.9 83 1.5 WNW 7 7 4 4 1014.0 1013.9 0.0
23/05:30am 13.7 12.2 10.5 81 1.7 NW 9 9 5 5 1013.6 1013.5 0.0
23/05:00am 14.6 13.3 11.4 81 1.7 NW 9 11 5 6 1013.4 1013.3 0.0
23/04:30am 15.6 14.9 12.0 79 2.0 NW 7 9 4 5 1013.1 1013.0 0.0
23/04:00am 15.9 15.9 12.3 79 2.0 NNW 4 9 2 5 1013.0 1012.9 0.0
23/03:30am 16.6 17.4 12.4 76 2.3 CALM 0 6 0 3 1012.8 1012.7 0.0
23/03:00am 17.7 17.2 12.2 70 3.0 NE 6 7 3 4 1012.8 1012.7 0.0
23/02:30am 16.8 16.5 12.7 77 2.3 N 6 7 3 4 1012.8 1012.7 0.0
23/02:00am 17.4 16.9 12.7 74 2.6 N 7 9 4 5 1012.7 1012.6 0.0
23/01:30am 17.4 17.0 13.1 76 2.4 NNW 7 9 4 5 1012.7 1012.6 0.0
23/01:00am 18.4 18.2 13.1 71 3.0 W 6 7 3 4 1012.2 1012.1 0.0
23/12:30am 18.7 19.1 13.8 73 2.8 W 4 7 2 4 1011.9 1011.8 0.0
23/12:00am 19.1 18.7 14.1 73 2.9 WSW 9 11 5 6 1011.8 1011.7 0.0
 
Date/Time
EDT
Temp
°C
App
Temp
°C
Dew
Point
°C
Rel
Hum
%
Delta-T
°C
Wind Press
QNH
hPa
Press
MSL
hPa
Rain since
9am
mm
Dir  Spd
km/h
Gust
km/h
Spd
kts
Gust
kts
22/11:30pm 19.6 17.6 14.0 70 3.2 SSW 17 24 9 13 1011.1 1011.1 0.0
22/11:00pm 20.1 15.7 14.0 68 3.5 SSW 30 44 16 24 1010.5 1010.5 0.0
22/10:30pm 22.7 16.9 10.8 47 6.6 WSW 32 50 17 27 1009.7 1009.7 0.0
22/10:26pm 24.2 19.3 10.1 41 7.8 WSW 26 50 14 27 1009.4 1009.4 0.0
22/10:22pm 26.4 21.9 5.9 27 10.6 NW 19 41 10 22 1009.2 1009.2 0.0
22/10:00pm 28.3 24.1 1.7 18 13.0 N 13 19 7 10 1008.0 1008.0 0.0
22/09:30pm 28.7 24.6 2.1 18 13.1 NNE 13 19 7 10 1007.6 1007.6 0.0
22/09:00pm 30.0 25.4 1.5 16 14.0 NNE 15 24 8 13 1007.4 1007.4 0.0
22/08:30pm 30.8 26.1 1.2 15 14.5 N 15 22 8 12 1007.4 1007.4 0.0
22/08:00pm 32.0 27.0 1.2 14 15.3 N 17 28 9 15 1007.3 1007.3 0.0
22/07:30pm 32.9 27.3 0.9 13 15.8 N 20 35 11 19 1007.2 1007.2 0.0
22/07:00pm 33.1 26.7 1.0 13 16.0 N 24 39 13 21 1007.3 1007.3 0.0
22/06:30pm 33.7 26.2 1.5 13 16.2 N 30 43 16 23 1007.3 1007.3 0.0
22/06:00pm 33.5 26.2 2.4 14 15.9 N 30 48 16 26 1007.7 1007.7 0.0
22/05:39pm 33.8 26.2 2.6 14 16.0 N 32 50 17 27 1008.0 1008.0 0.0
22/05:30pm 33.9 26.3 2.7 14 16.0 N 32 46 17 25 1008.0 1008.0 0.0
22/05:04pm 34.0 27.1 2.8 14 16.0 N 28 46 15 25 1008.1 1008.1 0.0
22/05:00pm 33.8 26.9 2.6 14 16.0 N 28 43 15 23 1008.2 1008.2 0.0
22/04:30pm 32.6 25.0 2.6 15 15.2 N 32 52 17 28 1008.7 1008.7 0.0
22/04:00pm 32.6 25.9 3.5 16 15.0 N 28 46 15 25 1009.0 1009.0 0.0
22/03:39pm 32.3 24.9 4.2 17 14.6 N 32 52 17 28 1009.0 1009.0 0.0
22/03:30pm 32.5 25.2 4.3 17 14.7 N 32 46 17 25 1009.2 1009.2 0.0
22/03:02pm 32.1 24.9 4.8 18 14.3 N 32 50 17 27 1009.7 1009.7 0.0
22/03:00pm 32.1 24.7 4.8 18 14.4 NNE 33 50 18 27 1009.8 1009.8 0.0
22/02:43pm 32.4 25.6 5.1 18 14.4 N 30 48 16 26 1010.0 1010.0 0.0
22/02:30pm 31.8 25.4 5.3 19 14.0 N 28 44 15 24 1010.7 1010.7 0.0
22/02:02pm 31.4 24.8 4.2 18 14.1 N 28 46 15 25 1011.2 1011.2 0.0
22/02:00pm 31.4 25.2 4.2 18 14.1 N 26 46 14 25 1011.2 1011.2 0.0
22/01:35pm 30.3 23.7 4.1 19 13.5 N 28 52 15 28 1011.8 1011.7 0.0
22/01:30pm 30.9 24.8 4.6 19 13.7 N 26 43 14 23 1011.8 1011.7 0.0
22/01:07pm 30.0 23.5 4.6 20 13.1 N 28 46 15 25 1012.3 1012.2 0.0
22/01:00pm 30.1 24.1 5.4 21 13.0 N 26 43 14 23 1012.4 1012.3 0.0
22/12:30pm 28.9 22.3 4.4 21 12.5 N 28 41 15 22 1013.0 1012.9 0.0
22/12:00pm 28.9 23.7 5.7 23 12.1 N 22 33 12 18 1013.6 1013.5 0.0
22/11:30am 26.9 21.1 6.3 27 10.8 NNE 26 39 14 21 1014.2 1014.1 0.0
22/11:00am 26.2 19.4 6.8 29 10.2 NNE 32 44 17 24 1014.8 1014.7 0.0
22/10:30am 25.2 18.1 5.4 28 10.1 N 32 46 17 25 1015.1 1015.0 0.0
22/10:00am 24.2 17.8 5.1 29 9.6 NNE 28 39 15 21 1015.1 1015.0 0.0
22/09:30am 21.8 17.1 5.3 34 8.2 N 19 32 10 17 1015.2 1015.1 0.0
22/09:00am 19.6 15.3 5.3 39 7.0 N 17 28 9 15 1015.4 1015.3 0.0
22/08:30am 16.8 14.1 7.4 54 4.7 NNE 11 17 6 9 1015.4 1015.3 0.0
22/08:00am 14.1 12.0 8.1 67 3.0 NNE 9 15 5 8 1015.5 1015.4 0.0
22/07:30am 12.1 10.0 8.4 78 1.8 NNE 9 13 5 7 1015.4 1015.3 0.0
22/07:00am 11.2 9.7 8.4 83 1.4 NE 6 9 3 5 1015.4 1015.3 0.0
22/06:30am 11.9 9.6 8.9 82 1.5 NNE 11 13 6 7 1015.3 1015.2 0.0
22/06:00am 11.4 9.5 9.1 86 1.1 NE 9 13 5 7 1015.0 1014.9 0.0
22/05:30am 11.0 8.7 9.1 88 0.9 NE 11 13 6 7 1015.0 1014.9 0.0
22/05:00am 11.2 9.3 8.9 86 1.1 NNE 9 9 5 5 1015.3 1015.2 0.0
22/04:30am 10.9 9.4 9.0 88 0.9 NE 7 9 4 5 1015.5 1015.4 0.0
22/04:00am 11.8 10.1 9.7 87 1.1 NNE 9 11 5 6 1015.8 1015.7 0.0
22/03:30am 11.1 9.3 9.5 90 0.8 N 9 11 5 6 1015.9 1015.8 0.0
22/03:00am 11.2 10.1 9.8 91 0.7 NNW 6 7 3 4 1016.3 1016.2 0.0
22/02:30am 11.4 10.1 9.8 90 0.8 NNW 7 11 4 6 1016.5 1016.4 0.0
22/02:00am 11.6 10.0 10.2 91 0.7 NNW 9 11 5 6 1016.9 1016.8 0.0
22/01:30am 11.9 10.3 10.1 89 0.9 NW 9 11 5 6 1017.1 1017.0 0.0
22/01:00am 13.0 11.1 10.4 84 1.3 NW 11 11 6 6 1017.5 1017.4 0.0
22/12:30am 14.0 12.7 11.2 83 1.5 WNW 9 11 5 6 1017.9 1017.8 0.0
22/12:00am 15.6 15.0 11.8 78 2.1 SE 6 7 3 4 1018.2 1018.1 0.0
 
Date/Time
EDT
Temp
°C
App
Temp
°C
Dew
Point
°C
Rel
Hum
%
Delta-T
°C
Wind Press
QNH
hPa
Press
MSL
hPa
Rain since
9am
mm
Dir  Spd
km/h
Gust
km/h
Spd
kts
Gust
kts
21/11:30pm 16.2 15.4 11.8 75 2.4 ESE 7 11 4 6 1018.3 1018.2 0.0
21/11:00pm 16.3 15.1 11.7 74 2.5 ESE 9 13 5 7 1018.4 1018.3 0.0
21/10:30pm 17.0 15.8 11.7 71 2.9 ESE 9 15 5 8 1018.6 1018.5 0.0
21/10:00pm 17.9 15.1 11.5 66 3.5 ESE 17 26 9 14 1018.5 1018.4 0.0
21/09:30pm 18.2 16.4 12.2 68 3.3 SE 13 19 7 10 1018.4 1018.3 0.0
21/09:00pm 18.6 16.4 12.1 66 3.6 ESE 15 20 8 11 1017.9 1017.8 0.0
21/08:30pm 19.2 16.8 12.7 66 3.7 SE 17 22 9 12 1017.7 1017.6 0.0
21/08:00pm 19.7 16.9 12.7 64 3.9 SE 19 26 10 14 1017.4 1017.3 0.0
21/07:30pm 20.3 17.3 12.0 59 4.6 SE 19 26 10 14 1017.3 1017.2 0.0
21/07:00pm 20.9 16.3 6.4 39 7.3 SE 20 30 11 16 1017.5 1017.4 0.0
21/06:30pm 21.2 17.4 7.4 41 7.1 SE 17 24 9 13 1017.5 1017.4 0.0
21/06:00pm 21.3 16.9 7.2 40 7.2 SE 20 26 11 14 1017.6 1017.5 0.0
21/05:30pm 21.4 16.9 6.9 39 7.4 SE 20 26 11 14 1017.8 1017.7 0.0
21/05:00pm 21.4 17.1 8.0 42 7.0 SE 20 28 11 15 1018.0 1017.9 0.0

Other Formats:

Comma delimited format used in spreadsheet applications
http://www.bom.gov.au/fwo/IDV60801/IDV60801.94865.axf

JavaScript Object Notation format (JSON) in row-major order
http://www.bom.gov.au/fwo/IDV60801/IDV60801.94865.json